sensor_id;sensor_type;location;lat;lon;timestamp;pressure;altitude;pressure_sealevel;temperature;humidity
57990;BME280;58373;51.824;5.564;2023-01-28T00:01:37;102896.94;;;1.45;87.95
57990;BME280;58373;51.824;5.564;2023-01-28T00:04:02;102897.78;;;1.44;87.53
57990;BME280;58373;51.824;5.564;2023-01-28T00:06:27;102902.91;;;1.43;87.49
57990;BME280;58373;51.824;5.564;2023-01-28T00:08:53;102899.50;;;1.42;87.99
57990;BME280;58373;51.824;5.564;2023-01-28T00:11:20;102898.69;;;1.40;88.04
57990;BME280;58373;51.824;5.564;2023-01-28T00:13:50;102905.47;;;1.44;88.37
57990;BME280;58373;51.824;5.564;2023-01-28T00:16:15;102898.63;;;1.46;88.38
57990;BME280;58373;51.824;5.564;2023-01-28T00:18:41;102895.25;;;1.44;88.20
57990;BME280;58373;51.824;5.564;2023-01-28T00:21:11;102895.19;;;1.47;87.99
57990;BME280;58373;51.824;5.564;2023-01-28T00:23:39;102898.59;;;1.49;88.01
57990;BME280;58373;51.824;5.564;2023-01-28T00:26:07;102901.97;;;1.51;88.20
57990;BME280;58373;51.824;5.564;2023-01-28T00:28:34;102899.44;;;1.50;88.13
57990;BME280;58373;51.824;5.564;2023-01-28T00:31:15;102893.44;;;1.52;88.63
57990;BME280;58373;51.824;5.564;2023-01-28T00:33:42;102900.28;;;1.50;88.16
57990;BME280;58373;51.824;5.564;2023-01-28T00:36:08;102893.50;;;1.46;88.07
57990;BME280;58373;51.824;5.564;2023-01-28T00:38:33;102896.88;;;1.48;87.97
57990;BME280;58373;51.824;5.564;2023-01-28T00:41:13;102891.84;;;1.42;88.36
57990;BME280;58373;51.824;5.564;2023-01-28T00:43:40;102890.97;;;1.45;88.74
57990;BME280;58373;51.824;5.564;2023-01-28T00:46:07;102903.72;;;1.46;89.47
57990;BME280;58373;51.824;5.564;2023-01-28T00:48:34;102897.78;;;1.44;89.54
57990;BME280;58373;51.824;5.564;2023-01-28T00:50:59;102892.69;;;1.44;88.83
57990;BME280;58373;51.824;5.564;2023-01-28T00:53:25;102900.34;;;1.44;89.29
57990;BME280;58373;51.824;5.564;2023-01-28T00:55:51;102910.53;;;1.47;89.61
57990;BME280;58373;51.824;5.564;2023-01-28T00:58:17;102912.22;;;1.48;89.94
57990;BME280;58373;51.824;5.564;2023-01-28T01:00:42;102912.25;;;1.47;89.44
57990;BME280;58373;51.824;5.564;2023-01-28T01:03:07;102910.59;;;1.41;89.65
57990;BME280;58373;51.824;5.564;2023-01-28T01:05:33;102907.19;;;1.42;90.22
57990;BME280;58373;51.824;5.564;2023-01-28T01:07:59;102914.03;;;1.40;90.92
57990;BME280;58373;51.824;5.564;2023-01-28T01:10:24;102910.59;;;1.41;90.86
57990;BME280;58373;51.824;5.564;2023-01-28T01:12:50;102910.63;;;1.40;90.36
57990;BME280;58373;51.824;5.564;2023-01-28T01:15:16;102910.66;;;1.38;90.85
57990;BME280;58373;51.824;5.564;2023-01-28T01:17:44;102903.81;;;1.37;90.66
57990;BME280;58373;51.824;5.564;2023-01-28T01:20:18;102909.78;;;1.39;90.68
57990;BME280;58373;51.824;5.564;2023-01-28T01:22:44;102895.38;;;1.32;90.78
57990;BME280;58373;51.824;5.564;2023-01-28T01:25:11;102900.41;;;1.38;90.63
57990;BME280;58373;51.824;5.564;2023-01-28T01:27:37;102892.81;;;1.30;90.89
57990;BME280;58373;51.824;5.564;2023-01-28T01:30:03;102902.13;;;1.36;90.99
57990;BME280;58373;51.824;5.564;2023-01-28T01:32:32;102898.75;;;1.31;90.25
57990;BME280;58373;51.824;5.564;2023-01-28T01:34:59;102910.66;;;1.35;90.48
57990;BME280;58373;51.824;5.564;2023-01-28T01:37:25;102898.75;;;1.31;90.47
57990;BME280;58373;51.824;5.564;2023-01-28T01:39:50;102899.59;;;1.31;90.02
57990;BME280;58373;51.824;5.564;2023-01-28T01:42:15;102906.44;;;1.29;90.07
57990;BME280;58373;51.824;5.564;2023-01-28T01:45:00;102903.88;;;1.31;90.96
57990;BME280;58373;51.824;5.564;2023-01-28T01:50:00;102897.16;;;1.22;90.39
57990;BME280;58373;51.824;5.564;2023-01-28T01:52:30;102901.41;;;1.23;90.34
57990;BME280;58373;51.824;5.564;2023-01-28T01:54:59;102894.63;;;1.21;90.63
57990;BME280;58373;51.824;5.564;2023-01-28T01:57:29;102897.13;;;1.24;90.47
57990;BME280;58373;51.824;5.564;2023-01-28T01:59:57;102909.09;;;1.22;90.61
57990;BME280;58373;51.824;5.564;2023-01-28T02:02:33;102910.78;;;1.20;90.26
57990;BME280;58373;51.824;5.564;2023-01-28T02:04:59;102897.19;;;1.21;90.88
57990;BME280;58373;51.824;5.564;2023-01-28T02:07:25;102920.97;;;1.26;90.93
57990;BME280;58373;51.824;5.564;2023-01-28T02:09:51;102920.97;;;1.26;91.17
57990;BME280;58373;51.824;5.564;2023-01-28T02:12:20;102903.97;;;1.23;91.30
57990;BME280;58373;51.824;5.564;2023-01-28T02:14:53;102901.47;;;1.16;90.71
57990;BME280;58373;51.824;5.564;2023-01-28T02:17:20;102910.78;;;1.20;91.37
57990;BME280;58373;51.824;5.564;2023-01-28T02:31:23;102912.63;;;1.05;90.68
57990;BME280;58373;51.824;5.564;2023-01-28T02:33:56;102910.94;;;1.04;90.72
57990;BME280;58373;51.824;5.564;2023-01-28T02:36:47;102912.63;;;1.05;90.57
57990;BME280;58373;51.824;5.564;2023-01-28T02:39:26;102911.00;;;0.98;90.69
57990;BME280;58373;51.824;5.564;2023-01-28T02:44:25;102919.50;;;0.97;90.47
57990;BME280;58373;51.824;5.564;2023-01-28T02:46:51;102892.44;;;0.75;89.85
57990;BME280;58373;51.824;5.564;2023-01-28T02:49:49;102911.09;;;0.86;90.38
57990;BME280;58373;51.824;5.564;2023-01-28T03:03:06;102910.25;;;0.83;90.70
57990;BME280;58373;51.824;5.564;2023-01-28T03:05:44;102916.22;;;0.83;90.14
57990;BME280;58373;51.824;5.564;2023-01-28T03:08:31;102923.88;;;0.83;90.72
57990;BME280;58373;51.824;5.564;2023-01-28T03:11:15;102926.44;;;0.80;90.79
57990;BME280;58373;51.824;5.564;2023-01-28T03:14:00;102917.97;;;0.78;90.10
57990;BME280;58373;51.824;5.564;2023-01-28T03:16:45;102923.06;;;0.78;90.42
57990;BME280;58373;51.824;5.564;2023-01-28T03:19:29;102912.88;;;0.75;89.76
57990;BME280;58373;51.824;5.564;2023-01-28T03:22:14;102921.38;;;0.77;90.11
57990;BME280;58373;51.824;5.564;2023-01-28T03:25:00;102918.00;;;0.75;90.05
57990;BME280;58373;51.824;5.564;2023-01-28T03:27:59;102912.88;;;0.72;89.99
57990;BME280;58373;51.824;5.564;2023-01-28T03:31:13;102914.59;;;0.73;89.96
57990;BME280;58373;51.824;5.564;2023-01-28T03:33:56;102918.00;;;0.75;89.29
57990;BME280;58373;51.824;5.564;2023-01-28T03:36:42;102917.13;;;0.76;89.19
57990;BME280;58373;51.824;5.564;2023-01-28T03:39:14;102923.09;;;0.75;89.86
57990;BME280;58373;51.824;5.564;2023-01-28T03:41:40;102912.88;;;0.73;89.54
57990;BME280;58373;51.824;5.564;2023-01-28T03:44:06;102914.56;;;0.76;89.63
57990;BME280;58373;51.824;5.564;2023-01-28T03:46:50;102921.38;;;0.77;89.69
57990;BME280;58373;51.824;5.564;2023-01-28T03:49:16;102921.34;;;0.80;89.18
57990;BME280;58373;51.824;5.564;2023-01-28T03:51:41;102920.50;;;0.81;89.02
57990;BME280;58373;51.824;5.564;2023-01-28T03:54:07;102917.97;;;0.78;88.99
57990;BME280;58373;51.824;5.564;2023-01-28T03:56:32;102923.94;;;0.72;88.67
57990;BME280;58373;51.824;5.564;2023-01-28T03:59:04;102934.09;;;0.80;88.11
57990;BME280;58373;51.824;5.564;2023-01-28T04:01:30;102941.75;;;0.83;88.53
57990;BME280;58373;51.824;5.564;2023-01-28T04:03:55;102928.22;;;0.75;87.74
57990;BME280;58373;51.824;5.564;2023-01-28T04:06:20;102932.47;;;0.73;87.27
57990;BME280;58373;51.824;5.564;2023-01-28T04:08:46;102957.13;;;0.77;87.77
57990;BME280;58373;51.824;5.564;2023-01-28T04:11:18;102940.13;;;0.73;87.64
57990;BME280;58373;51.824;5.564;2023-01-28T04:13:45;102948.66;;;0.75;87.32
57990;BME280;58373;51.824;5.564;2023-01-28T04:16:13;102949.47;;;0.77;87.48
57990;BME280;58373;51.824;5.564;2023-01-28T04:18:38;102938.44;;;0.72;86.49
57990;BME280;58373;51.824;5.564;2023-01-28T04:21:04;102939.28;;;0.71;86.47
57990;BME280;58373;51.824;5.564;2023-01-28T04:23:30;102939.28;;;0.72;85.59
57990;BME280;58373;51.824;5.564;2023-01-28T04:25:55;102936.75;;;0.69;86.03
57990;BME280;58373;51.824;5.564;2023-01-28T04:28:21;102928.25;;;0.66;85.68
57990;BME280;58373;51.824;5.564;2023-01-28T04:30:46;102933.31;;;0.72;86.69
57990;BME280;58373;51.824;5.564;2023-01-28T04:33:12;102941.00;;;0.70;86.82
57990;BME280;58373;51.824;5.564;2023-01-28T04:35:38;102936.75;;;0.71;85.87
57990;BME280;58373;51.824;5.564;2023-01-28T04:38:04;102941.00;;;0.69;85.83
57990;BME280;58373;51.824;5.564;2023-01-28T04:40:29;102938.47;;;0.66;85.82
57990;BME280;58373;51.824;5.564;2023-01-28T04:42:55;102945.28;;;0.67;85.75
57990;BME280;58373;51.824;5.564;2023-01-28T04:45:21;102956.34;;;0.66;85.64
57990;BME280;58373;51.824;5.564;2023-01-28T04:47:47;102945.31;;;0.64;85.43
57990;BME280;58373;51.824;5.564;2023-01-28T04:50:12;102961.44;;;0.66;85.63
57990;BME280;58373;51.824;5.564;2023-01-28T04:52:37;102952.97;;;0.64;85.97
57990;BME280;58373;51.824;5.564;2023-01-28T04:55:03;102961.47;;;0.64;86.25
57990;BME280;58373;51.824;5.564;2023-01-28T04:57:29;102963.19;;;0.61;84.50
57990;BME280;58373;51.824;5.564;2023-01-28T04:59:54;102964.91;;;0.59;83.35
57990;BME280;58373;51.824;5.564;2023-01-28T05:02:19;102966.63;;;0.58;83.76
57990;BME280;58373;51.824;5.564;2023-01-28T05:04:45;102969.16;;;0.60;83.59
57990;BME280;58373;51.824;5.564;2023-01-28T05:07:10;102969.19;;;0.53;83.90
57990;BME280;58373;51.824;5.564;2023-01-28T05:09:36;102975.97;;;0.59;84.08
57990;BME280;58373;51.824;5.564;2023-01-28T05:12:02;102970.88;;;0.55;83.60
57990;BME280;58373;51.824;5.564;2023-01-28T05:14:27;102972.56;;;0.56;83.10
57990;BME280;58373;51.824;5.564;2023-01-28T05:16:53;102969.16;;;0.57;83.65
57990;BME280;58373;51.824;5.564;2023-01-28T05:19:18;102964.03;;;0.57;83.33
57990;BME280;58373;51.824;5.564;2023-01-28T05:21:44;102964.03;;;0.60;83.13
57990;BME280;58373;51.824;5.564;2023-01-28T05:24:09;102957.25;;;0.59;82.78
57990;BME280;58373;51.824;5.564;2023-01-28T05:26:34;102950.44;;;0.55;82.46
57990;BME280;58373;51.824;5.564;2023-01-28T05:29:01;102954.69;;;0.56;82.51
57990;BME280;58373;51.824;5.564;2023-01-28T05:31:26;102947.03;;;0.59;82.88
57990;BME280;58373;51.824;5.564;2023-01-28T05:33:52;102936.81;;;0.59;83.09
57990;BME280;58373;51.824;5.564;2023-01-28T05:36:17;102945.31;;;0.64;82.78
57990;BME280;58373;51.824;5.564;2023-01-28T05:38:43;102939.34;;;0.62;82.85
57990;BME280;58373;51.824;5.564;2023-01-28T05:41:08;102941.88;;;0.65;83.56
57990;BME280;58373;51.824;5.564;2023-01-28T05:43:33;102947.84;;;0.64;82.99
57990;BME280;58373;51.824;5.564;2023-01-28T05:45:59;102953.75;;;0.69;83.35
57990;BME280;58373;51.824;5.564;2023-01-28T05:48:24;102945.31;;;0.61;83.38
57990;BME280;58373;51.824;5.564;2023-01-28T05:50:50;102960.63;;;0.64;83.48
57990;BME280;58373;51.824;5.564;2023-01-28T05:53:15;102958.91;;;0.64;83.35
57990;BME280;58373;51.824;5.564;2023-01-28T05:55:40;102950.41;;;0.64;83.57
57990;BME280;58373;51.824;5.564;2023-01-28T05:58:06;102960.63;;;0.64;82.48
57990;BME280;58373;51.824;5.564;2023-01-28T06:00:31;102957.22;;;0.60;82.99
57990;BME280;58373;51.824;5.564;2023-01-28T06:02:57;102957.22;;;0.62;83.21
57990;BME280;58373;51.824;5.564;2023-01-28T06:05:22;102966.56;;;0.66;82.83
57990;BME280;58373;51.824;5.564;2023-01-28T06:07:47;102958.06;;;0.65;82.63
57990;BME280;58373;51.824;5.564;2023-01-28T06:10:14;102936.81;;;0.59;83.92
57990;BME280;58373;51.824;5.564;2023-01-28T06:12:41;102957.22;;;0.65;84.30
57990;BME280;58373;51.824;5.564;2023-01-28T06:15:07;102935.09;;;0.61;83.85
57990;BME280;58373;51.824;5.564;2023-01-28T06:17:33;102941.88;;;0.65;83.83
57990;BME280;58373;51.824;5.564;2023-01-28T06:19:58;102953.78;;;0.66;83.73
57990;BME280;58373;51.824;5.564;2023-01-28T06:22:24;102950.41;;;0.61;83.34
57990;BME280;58373;51.824;5.564;2023-01-28T06:24:49;102950.41;;;0.64;83.12
57990;BME280;58373;51.824;5.564;2023-01-28T06:27:14;102952.13;;;0.63;83.34
57990;BME280;58373;51.824;5.564;2023-01-28T06:29:40;102961.44;;;0.66;83.22
57990;BME280;58373;51.824;5.564;2023-01-28T06:32:05;102967.38;;;0.68;83.75
57990;BME280;58373;51.824;5.564;2023-01-28T06:34:31;102964.84;;;0.68;83.73
57990;BME280;58373;51.824;5.564;2023-01-28T06:36:56;102957.22;;;0.65;83.36
57990;BME280;58373;51.824;5.564;2023-01-28T06:39:22;102945.31;;;0.61;83.46
57990;BME280;58373;51.824;5.564;2023-01-28T06:41:48;102955.47;;;0.68;83.76
57990;BME280;58373;51.824;5.564;2023-01-28T06:44:14;102957.19;;;0.68;83.91
57990;BME280;58373;51.824;5.564;2023-01-28T06:46:39;102952.94;;;0.67;84.08
57990;BME280;58373;51.824;5.564;2023-01-28T06:49:04;102950.41;;;0.64;83.61
57990;BME280;58373;51.824;5.564;2023-01-28T06:51:30;102967.38;;;0.68;84.16
57990;BME280;58373;51.824;5.564;2023-01-28T06:53:55;102962.31;;;0.65;83.93
57990;BME280;58373;51.824;5.564;2023-01-28T06:56:21;102967.38;;;0.68;83.83
57990;BME280;58373;51.824;5.564;2023-01-28T06:58:46;102965.75;;;0.64;83.95
57990;BME280;58373;51.824;5.564;2023-01-28T07:01:11;102964.03;;;0.61;84.01
57990;BME280;58373;51.824;5.564;2023-01-28T07:03:37;102964.91;;;0.60;84.66
57990;BME280;58373;51.824;5.564;2023-01-28T07:06:02;102969.16;;;0.60;83.96
57990;BME280;58373;51.824;5.564;2023-01-28T07:08:28;102987.88;;;0.59;83.58
57990;BME280;58373;51.824;5.564;2023-01-28T07:10:53;102977.69;;;0.51;83.77
57990;BME280;58373;51.824;5.564;2023-01-28T07:13:18;102988.78;;;0.50;83.11
57990;BME280;58373;51.824;5.564;2023-01-28T07:15:44;102994.72;;;0.50;82.91
57990;BME280;58373;51.824;5.564;2023-01-28T07:18:09;102994.75;;;0.47;82.52
57990;BME280;58373;51.824;5.564;2023-01-28T07:20:34;102994.75;;;0.44;82.36
57990;BME280;58373;51.824;5.564;2023-01-28T07:23:00;103000.72;;;0.48;82.92
57990;BME280;58373;51.824;5.564;2023-01-28T07:25:25;102999.84;;;0.44;83.46
57990;BME280;58373;51.824;5.564;2023-01-28T07:27:52;103014.34;;;0.47;83.93
57990;BME280;58373;51.824;5.564;2023-01-28T07:30:19;103014.34;;;0.42;84.03
57990;BME280;58373;51.824;5.564;2023-01-28T07:32:45;103015.19;;;0.41;84.66
57990;BME280;58373;51.824;5.564;2023-01-28T07:35:11;103020.31;;;0.41;85.04
57990;BME280;58373;51.824;5.564;2023-01-28T07:37:37;103018.63;;;0.40;84.41
57990;BME280;58373;51.824;5.564;2023-01-28T07:40:03;103005.88;;;0.36;84.70
57990;BME280;58373;51.824;5.564;2023-01-28T07:42:28;103018.63;;;0.40;84.48
57990;BME280;58373;51.824;5.564;2023-01-28T07:44:54;103016.91;;;0.33;84.00
57990;BME280;58373;51.824;5.564;2023-01-28T07:47:19;103006.75;;;0.30;84.99
57990;BME280;58373;51.824;5.564;2023-01-28T07:49:45;103008.41;;;0.34;84.52
57990;BME280;58373;51.824;5.564;2023-01-28T07:52:10;103016.91;;;0.36;84.49
57990;BME280;58373;51.824;5.564;2023-01-28T07:54:35;103022.03;;;0.33;84.18
57990;BME280;58373;51.824;5.564;2023-01-28T07:57:01;103022.06;;;0.30;83.77
57990;BME280;58373;51.824;5.564;2023-01-28T07:59:26;103031.38;;;0.33;83.02
57990;BME280;58373;51.824;5.564;2023-01-28T08:01:52;103033.13;;;0.29;82.58
57990;BME280;58373;51.824;5.564;2023-01-28T08:04:20;103042.44;;;0.33;83.51
57990;BME280;58373;51.824;5.564;2023-01-28T08:06:45;103033.09;;;0.31;83.39
57990;BME280;58373;51.824;5.564;2023-01-28T08:09:10;103042.47;;;0.32;82.65
57990;BME280;58373;51.824;5.564;2023-01-28T08:11:37;103045.00;;;0.29;82.91
57990;BME280;58373;51.824;5.564;2023-01-28T08:14:03;103045.03;;;0.30;83.19
57990;BME280;58373;51.824;5.564;2023-01-28T08:16:29;103045.88;;;0.26;84.11
57990;BME280;58373;51.824;5.564;2023-01-28T08:18:55;103038.22;;;0.23;84.31
57990;BME280;58373;51.824;5.564;2023-01-28T08:21:20;103045.88;;;0.26;82.82
57990;BME280;58373;51.824;5.564;2023-01-28T08:23:46;103045.88;;;0.26;82.12
57990;BME280;58373;51.824;5.564;2023-01-28T08:26:11;103048.41;;;0.28;82.62
57990;BME280;58373;51.824;5.564;2023-01-28T08:28:37;103053.53;;;0.26;82.85
57990;BME280;58373;51.824;5.564;2023-01-28T08:31:02;103061.19;;;0.29;83.03
57990;BME280;58373;51.824;5.564;2023-01-28T08:33:28;103063.72;;;0.31;83.56
57990;BME280;58373;51.824;5.564;2023-01-28T08:35:53;103059.47;;;0.31;84.00
57990;BME280;58373;51.824;5.564;2023-01-28T08:38:19;103044.19;;;0.25;84.31
57990;BME280;58373;51.824;5.564;2023-01-28T08:40:47;103059.44;;;0.34;84.34
57990;BME280;58373;51.824;5.564;2023-01-28T08:43:15;103062.88;;;0.36;83.96
57990;BME280;58373;51.824;5.564;2023-01-28T08:45:40;103067.13;;;0.37;84.12
57990;BME280;58373;51.824;5.564;2023-01-28T08:48:09;103059.47;;;0.40;84.44
57990;BME280;58373;51.824;5.564;2023-01-28T08:50:37;103067.94;;;0.39;84.37
57990;BME280;58373;51.824;5.564;2023-01-28T08:53:11;103059.47;;;0.40;84.45
57990;BME280;58373;51.824;5.564;2023-01-28T08:55:37;103062.88;;;0.33;83.47
57990;BME280;58373;51.824;5.564;2023-01-28T08:58:03;103090.06;;;0.34;83.76
57990;BME280;58373;51.824;5.564;2023-01-28T09:00:30;103094.34;;;0.34;84.20
57990;BME280;58373;51.824;5.564;2023-01-28T09:02:55;103081.59;;;0.26;84.68
57990;BME280;58373;51.824;5.564;2023-01-28T09:05:21;103085.00;;;0.31;84.82
57990;BME280;58373;51.824;5.564;2023-01-28T09:07:46;103089.25;;;0.31;84.87
57990;BME280;58373;51.824;5.564;2023-01-28T09:10:12;103081.63;;;0.29;83.15
57990;BME280;58373;51.824;5.564;2023-01-28T09:12:37;103083.31;;;0.21;83.10
57990;BME280;58373;51.824;5.564;2023-01-28T09:15:04;103074.81;;;0.19;83.85
57990;BME280;58373;51.824;5.564;2023-01-28T09:17:29;103093.53;;;0.21;83.21
57990;BME280;58373;51.824;5.564;2023-01-28T09:19:54;103109.66;;;0.23;83.61
57990;BME280;58373;51.824;5.564;2023-01-28T09:22:20;103110.53;;;0.25;83.83
57990;BME280;58373;51.824;5.564;2023-01-28T09:24:45;103111.38;;;0.27;83.80
57990;BME280;58373;51.824;5.564;2023-01-28T09:27:11;103118.19;;;0.26;83.50
57990;BME280;58373;51.824;5.564;2023-01-28T09:29:36;103108.84;;;0.21;83.50
57990;BME280;58373;51.824;5.564;2023-01-28T09:32:03;103115.63;;;0.22;83.24
57990;BME280;58373;51.824;5.564;2023-01-28T09:34:28;103124.97;;;0.23;83.31
57990;BME280;58373;51.824;5.564;2023-01-28T09:36:54;103123.28;;;0.22;83.10
57990;BME280;58373;51.824;5.564;2023-01-28T09:39:19;103121.59;;;0.21;83.62
57990;BME280;58373;51.824;5.564;2023-01-28T09:42:08;103122.44;;;0.24;83.68
57990;BME280;58373;51.824;5.564;2023-01-28T09:45:02;103122.44;;;0.26;83.78
57990;BME280;58373;51.824;5.564;2023-01-28T09:47:34;103124.16;;;0.21;85.07
57990;BME280;58373;51.824;5.564;2023-01-28T09:50:05;103119.03;;;0.27;84.35
57990;BME280;58373;51.824;5.564;2023-01-28T09:52:34;103120.72;;;0.28;84.23
57990;BME280;58373;51.824;5.564;2023-01-28T09:57:51;103140.31;;;0.29;84.50
57990;BME280;58373;51.824;5.564;2023-01-28T10:00:20;103142.84;;;0.32;84.34
57990;BME280;58373;51.824;5.564;2023-01-28T10:03:05;103142.00;;;0.29;83.83
57990;BME280;58373;51.824;5.564;2023-01-28T10:08:36;103139.44;;;0.33;84.20
57990;BME280;58373;51.824;5.564;2023-01-28T10:14:00;103133.47;;;0.39;83.87
57990;BME280;58373;51.824;5.564;2023-01-28T10:16:34;103141.97;;;0.44;83.46
57990;BME280;58373;51.824;5.564;2023-01-28T10:19:31;103141.13;;;0.46;83.29
57990;BME280;58373;51.824;5.564;2023-01-28T10:22:06;103134.31;;;0.48;84.27
57990;BME280;58373;51.824;5.564;2023-01-28T10:24:40;103130.91;;;0.52;84.13
57990;BME280;58373;51.824;5.564;2023-01-28T10:27:25;103121.53;;;0.50;82.78
57990;BME280;58373;51.824;5.564;2023-01-28T10:29:52;103134.28;;;0.58;83.08
57990;BME280;58373;51.824;5.564;2023-01-28T10:32:28;103136.00;;;0.59;83.14
57990;BME280;58373;51.824;5.564;2023-01-28T10:34:54;103140.22;;;0.64;82.76
57990;BME280;58373;51.824;5.564;2023-01-28T10:37:20;103128.31;;;0.59;82.46
57990;BME280;58373;51.824;5.564;2023-01-28T10:39:46;103135.97;;;0.65;81.87
57990;BME280;58373;51.824;5.564;2023-01-28T10:42:31;103134.25;;;0.67;83.31
57990;BME280;58373;51.824;5.564;2023-01-28T10:45:16;103124.91;;;0.66;83.78
57990;BME280;58373;51.824;5.564;2023-01-28T10:47:50;103124.00;;;0.73;83.27
57990;BME280;58373;51.824;5.564;2023-01-28T10:50:21;103131.69;;;0.76;83.34
57990;BME280;58373;51.824;5.564;2023-01-28T10:52:54;103125.69;;;0.78;83.07
57990;BME280;58373;51.824;5.564;2023-01-28T10:55:20;103118.03;;;0.78;82.53
57990;BME280;58373;51.824;5.564;2023-01-28T10:57:45;103114.63;;;0.79;81.96
57990;BME280;58373;51.824;5.564;2023-01-28T11:00:22;103124.84;;;0.79;82.68
57990;BME280;58373;51.824;5.564;2023-01-28T11:02:49;103110.34;;;0.83;82.66
57990;BME280;58373;51.824;5.564;2023-01-28T11:05:23;103095.84;;;0.85;82.43
57990;BME280;58373;51.824;5.564;2023-01-28T11:08:26;103074.53;;;0.91;81.62
57990;BME280;58373;51.824;5.564;2023-01-28T11:10:53;103089.06;;;0.87;80.94
57990;BME280;58373;51.824;5.564;2023-01-28T11:13:20;103083.94;;;0.87;81.81
57990;BME280;58373;51.824;5.564;2023-01-28T11:15:51;103076.25;;;0.90;81.91
57990;BME280;58373;51.824;5.564;2023-01-28T11:18:23;103077.91;;;0.97;81.51
57990;BME280;58373;51.824;5.564;2023-01-28T11:20:55;103062.56;;;1.03;81.13
57990;BME280;58373;51.824;5.564;2023-01-28T11:23:33;103068.47;;;1.09;82.30
57990;BME280;58373;51.824;5.564;2023-01-28T11:26:08;103066.75;;;1.12;81.46
57990;BME280;58373;51.824;5.564;2023-01-28T11:28:40;103065.88;;;1.21;81.91
57990;BME280;58373;51.824;5.564;2023-01-28T11:31:06;103064.09;;;1.26;81.31
57990;BME280;58373;51.824;5.564;2023-01-28T11:33:41;103046.22;;;1.27;80.63
57990;BME280;58373;51.824;5.564;2023-01-28T11:36:16;103035.06;;;1.36;81.24
57990;BME280;58373;51.824;5.564;2023-01-28T11:38:58;103024.81;;;1.39;81.31
57990;BME280;58373;51.824;5.564;2023-01-28T11:41:32;103003.50;;;1.42;80.94
57990;BME280;58373;51.824;5.564;2023-01-28T11:43:59;102989.03;;;1.39;79.49
57990;BME280;58373;51.824;5.564;2023-01-28T11:55:03;102991.41;;;1.59;80.23
57990;BME280;58373;51.824;5.564;2023-01-28T12:08:18;102987.84;;;1.74;80.49
57990;BME280;58373;51.824;5.564;2023-01-28T12:16:30;103016.81;;;1.76;78.72
57990;BME280;58373;51.824;5.564;2023-01-28T12:25:01;103022.78;;;1.78;80.57
57990;BME280;58373;51.824;5.564;2023-01-28T12:28:06;103031.31;;;1.77;79.84
57990;BME280;58373;51.824;5.564;2023-01-28T12:42:03;103015.00;;;1.90;80.07
57990;BME280;58373;51.824;5.564;2023-01-28T12:44:38;103015.75;;;1.98;80.42
57990;BME280;58373;51.824;5.564;2023-01-28T12:47:11;103008.03;;;2.03;80.10
57990;BME280;58373;51.824;5.564;2023-01-28T12:49:59;103015.66;;;2.07;78.43
57990;BME280;58373;51.824;5.564;2023-01-28T12:52:34;103022.41;;;2.11;80.38
57990;BME280;58373;51.824;5.564;2023-01-28T12:55:14;103026.69;;;2.14;78.48
57990;BME280;58373;51.824;5.564;2023-01-28T12:57:42;103017.28;;;2.11;78.45
57990;BME280;58373;51.824;5.564;2023-01-28T13:00:20;103028.38;;;2.13;78.77
57990;BME280;58373;51.824;5.564;2023-01-28T13:05:47;103022.44;;;2.13;77.30
57990;BME280;58373;51.824;5.564;2023-01-28T13:08:23;103007.06;;;2.13;78.21
57990;BME280;58373;51.824;5.564;2023-01-28T13:10:50;102999.41;;;2.10;78.63
57990;BME280;58373;51.824;5.564;2023-01-28T13:13:34;103005.28;;;2.20;78.73
57990;BME280;58373;51.824;5.564;2023-01-28T13:16:01;102990.84;;;2.14;78.68
57990;BME280;58373;51.824;5.564;2023-01-28T13:21:08;102994.97;;;2.26;79.07
57990;BME280;58373;51.824;5.564;2023-01-28T13:23:46;102993.22;;;2.28;77.00
57990;BME280;58373;51.824;5.564;2023-01-28T13:28:48;102977.84;;;2.31;77.13
57990;BME280;58373;51.824;5.564;2023-01-28T13:31:17;102954.00;;;2.26;76.79
57990;BME280;58373;51.824;5.564;2023-01-28T13:33:47;102953.84;;;2.38;78.75
57990;BME280;58373;51.824;5.564;2023-01-28T13:38:47;102931.66;;;2.37;77.12
57990;BME280;58373;51.824;5.564;2023-01-28T13:41:13;102929.88;;;2.42;78.28
57990;BME280;58373;51.824;5.564;2023-01-28T13:43:40;102928.06;;;2.50;78.25
57990;BME280;58373;51.824;5.564;2023-01-28T13:46:26;102928.75;;;2.61;79.31
57990;BME280;58373;51.824;5.564;2023-01-28T13:48:54;102926.16;;;2.64;78.17
57990;BME280;58373;51.824;5.564;2023-01-28T13:51:24;102925.22;;;2.69;78.23
57990;BME280;58373;51.824;5.564;2023-01-28T13:54:06;102931.13;;;2.74;77.77
57990;BME280;58373;51.824;5.564;2023-01-28T13:56:41;102925.97;;;2.77;77.67
57990;BME280;58373;51.824;5.564;2023-01-28T13:59:48;102931.03;;;2.80;77.71
57990;BME280;58373;51.824;5.564;2023-01-28T14:11:13;102953.31;;;2.75;76.94
57990;BME280;58373;51.824;5.564;2023-01-28T14:16:19;102965.38;;;2.70;76.76
57990;BME280;58373;51.824;5.564;2023-01-28T14:18:47;102961.97;;;2.67;77.14
57990;BME280;58373;51.824;5.564;2023-01-28T14:21:20;102965.44;;;2.63;75.82
57990;BME280;58373;51.824;5.564;2023-01-28T14:23:51;102961.19;;;2.64;76.24
57990;BME280;58373;51.824;5.564;2023-01-28T14:28:52;102972.34;;;2.58;75.79
57990;BME280;58373;51.824;5.564;2023-01-28T14:31:27;102972.41;;;2.52;75.52
57990;BME280;58373;51.824;5.564;2023-01-28T14:34:04;102965.69;;;2.45;75.36
57990;BME280;58373;51.824;5.564;2023-01-28T14:36:30;102975.97;;;2.40;76.31
57990;BME280;58373;51.824;5.564;2023-01-28T14:38:56;102975.16;;;2.38;76.41
57990;BME280;58373;51.824;5.564;2023-01-28T14:41:25;102970.94;;;2.34;76.04
57990;BME280;58373;51.824;5.564;2023-01-28T14:43:55;102988.78;;;2.40;76.53
57990;BME280;58373;51.824;5.564;2023-01-28T14:46:30;102976.84;;;2.39;76.95
57990;BME280;58373;51.824;5.564;2023-01-28T14:49:25;102953.00;;;2.37;76.74
57990;BME280;58373;51.824;5.564;2023-01-28T14:57:33;102950.47;;;2.36;78.07
57990;BME280;58373;51.824;5.564;2023-01-28T15:00:00;102945.34;;;2.36;78.35
57990;BME280;58373;51.824;5.564;2023-01-28T15:02:30;102947.03;;;2.37;78.82